Time;durP1;ratioP1;P1;durP2;ratioP2;P2;SDS_P1;SDS_P2;PMS_P1;PMS_P2;Temp;Humidity;BMP_temperature;BMP_pressure;BME280_temperature;BME280_humidity;BME280_pressure;Samples;Min_cycle;Max_cycle;Signal;HPM_P1;HPM_P2
2021/03/22 00:02:03;;;;;;;3.65;3.35;;;;;;;2.44;77.04;93796.44;4942290;28;20023;-79
2021/03/22 00:04:28;;;;;;;6.57;3.60;;;;;;;2.27;77.22;93794.38;4926486;28;20530;-79
2021/03/22 00:06:54;;;;;;;2.72;2.63;;;;;;;2.34;77.03;93795.13;4958527;28;20118;-79
2021/03/22 00:09:19;;;;;;;3.95;2.83;;;;;;;2.32;76.57;93780.94;4976023;28;20037;-79
2021/03/22 00:11:44;;;;;;;4.15;3.00;;;;;;;2.15;77.78;93775.50;4958628;28;20423;-80
2021/03/22 00:14:10;;;;;;;2.55;2.35;;;;;;;1.88;78.10;93763.81;4957533;28;20438;-79
2021/03/22 00:16:35;;;;;;;4.10;3.30;;;;;;;1.73;78.70;93772.53;4941188;28;20503;-78
2021/03/22 00:19:01;;;;;;;3.13;2.75;;;;;;;1.63;79.54;93767.06;4976435;28;20038;-78
2021/03/22 00:21:26;;;;;;;3.15;2.92;;;;;;;1.70;79.58;93761.91;4940692;28;20026;-79
2021/03/22 00:23:51;;;;;;;2.80;2.60;;;;;;;1.67;79.47;93757.97;4949573;28;20117;-79
2021/03/22 00:26:17;;;;;;;3.50;3.20;;;;;;;1.61;79.76;93751.06;4965447;28;20039;-78
2021/03/22 00:28:42;;;;;;;3.60;3.35;;;;;;;1.69;79.46;93752.66;4967760;28;20030;-79
2021/03/22 00:31:09;;;;;;;3.58;3.33;;;;;;;1.70;79.28;93747.31;4934984;28;20045;-79
2021/03/22 00:33:34;;;;;;;4.25;3.85;;;;;;;1.72;79.12;93745.31;4967839;28;20031;-79
2021/03/22 00:36:00;;;;;;;2.83;2.60;;;;;;;1.66;79.52;93751.28;4966224;28;20521;-79
2021/03/22 00:38:25;;;;;;;2.80;2.60;;;;;;;1.76;78.91;93751.63;4974548;28;20089;-79
2021/03/22 00:40:51;;;;;;;2.53;2.35;;;;;;;1.71;78.12;93754.00;4958601;28;20038;-79
2021/03/22 00:43:16;;;;;;;2.67;2.58;;;;;;;1.70;78.18;93761.91;4958714;28;20035;-78
2021/03/22 00:45:42;;;;;;;2.70;2.50;;;;;;;1.75;78.07;93760.28;4957644;28;20006;-78
2021/03/22 00:48:07;;;;;;;2.95;2.72;;;;;;;1.75;78.32;93762.06;4973056;28;20426;-78
2021/03/22 00:50:38;;;;;;;2.78;2.53;;;;;;;1.87;77.28;93760.44;4931828;28;20446;-78
2021/03/22 00:53:07;;;;;;;2.97;2.78;;;;;;;1.74;77.50;93756.16;4956885;28;20414;-78
2021/03/22 00:55:33;;;;;;;2.75;2.55;;;;;;;1.89;77.88;93747.44;4958092;28;20553;-79
2021/03/22 00:57:58;;;;;;;2.42;2.33;;;;;;;2.01;77.29;93746.59;4941611;28;20035;-78
2021/03/22 01:00:43;;;;;;;2.90;2.70;;;;;;;2.16;77.04;93738.63;4949083;28;20042;-78
2021/03/22 01:03:13;;;;;;;2.97;2.67;;;;;;;2.11;77.11;93733.31;4976188;28;20051;-79
2021/03/22 01:05:39;;;;;;;2.92;2.63;;;;;;;2.09;77.46;93740.41;4943082;28;20073;-79
2021/03/22 01:08:05;;;;;;;2.33;2.22;;;;;;;2.15;76.63;93728.56;4941776;28;20038;-79
2021/03/22 01:10:34;;;;;;;3.13;2.60;;;;;;;2.08;76.97;93733.72;5323051;23;20044;-79
2021/03/22 01:13:00;;;;;;;2.33;2.22;;;;;;;2.27;76.55;93730.25;5004383;28;20046;-80
2021/03/22 01:17:54;;;;;;;2.17;2.08;;;;;;;2.18;75.78;93712.75;5087475;23;20050;-80
2021/03/22 01:20:27;;;;;;;2.47;2.38;;;;;;;1.96;76.74;93707.19;5004731;28;20045;-79
2021/03/22 01:22:52;;;;;;;2.88;1.77;;;;;;;1.99;76.18;93699.06;5092163;23;20053;-80
2021/03/22 01:25:18;;;;;;;1.98;1.88;;;;;;;2.02;77.62;93698.66;5061266;23;20046;-79
2021/03/22 01:27:43;;;;;;;3.28;2.33;;;;;;;2.18;76.51;93689.69;5034185;23;20042;-79
2021/03/22 01:30:19;;;;;;;2.35;2.25;;;;;;;2.34;75.41;93689.19;5025116;28;20072;-79
2021/03/22 01:32:45;;;;;;;2.10;2.00;;;;;;;2.29;76.18;93700.06;5024694;28;20552;-79
2021/03/22 01:35:11;;;;;;;2.65;2.55;;;;;;;2.32;75.94;93689.38;5022058;28;20033;-78
2021/03/22 01:37:36;;;;;;;2.67;2.58;;;;;;;2.33;75.94;93698.66;5027043;28;20033;-79
2021/03/22 01:40:04;;;;;;;2.42;2.33;;;;;;;2.28;76.56;93695.94;4989811;28;20049;-79
2021/03/22 01:45:07;;;;;;;2.40;2.30;;;;;;;2.14;77.05;93675.72;5301418;23;20611;-78
2021/03/22 01:47:32;;;;;;;2.42;2.25;;;;;;;2.15;76.49;93683.19;4987025;28;20041;-81
2021/03/22 01:50:18;;;;;;;2.38;2.28;;;;;;;2.10;77.84;93683.00;5122124;23;20050;-80
2021/03/22 01:52:44;;;;;;;2.15;2.05;;;;;;;2.00;77.49;93682.69;5088439;23;20046;-79
2021/03/22 01:55:11;;;;;;;1.95;1.85;;;;;;;1.99;78.10;93676.00;4985078;28;20141;-79
2021/03/22 01:57:41;;;;;;;2.20;2.10;;;;;;;2.08;78.15;93654.22;4986382;28;20026;-79
2021/03/22 02:00:26;;;;;;;2.10;2.00;;;;;;;2.06;77.60;93653.66;4985291;28;20037;-79
2021/03/22 02:03:03;;;;;;;2.25;2.10;;;;;;;2.06;77.60;93653.66;4986371;28;20044;-80
2021/03/22 02:05:29;;;;;;;2.30;2.20;;;;;;;2.21;77.33;93646.44;4988891;28;20093;-80
2021/03/22 02:08:16;;;;;;;2.05;1.95;;;;;;;2.23;76.48;93653.94;5054384;23;20038;-79
2021/03/22 02:13:09;;;;;;;2.33;2.22;;;;;;;2.26;77.20;93653.50;5035424;23;20571;-79
2021/03/22 02:15:34;;;;;;;2.55;1.90;;;;;;;2.30;77.17;93662.38;4982565;28;20067;-79
2021/03/22 02:18:37;;;;;;;2.10;2.00;;;;;;;2.25;76.59;93657.84;4966387;28;20026;-77
2021/03/22 02:21:21;;;;;;;2.60;2.40;;;;;;;2.19;76.95;93658.69;4979714;28;20569;-79
2021/03/22 02:24:24;;;;;;;1.90;1.80;;;;;;;2.12;77.36;93652.06;4981960;28;20038;-77
2021/03/22 02:26:55;;;;;;;2.35;2.25;;;;;;;1.99;77.86;93660.63;4984886;28;20038;-78
2021/03/22 02:29:57;;;;;;;2.03;1.92;;;;;;;2.01;77.20;93653.50;4984570;28;20043;-79
2021/03/22 02:32:37;;;;;;;2.47;2.38;;;;;;;2.18;77.63;93641.75;4986235;28;20089;-79
2021/03/22 02:35:14;;;;;;;2.85;2.13;;;;;;;2.24;76.61;93634.97;5016826;23;20414;-78
2021/03/22 02:37:55;;;;;;;1.85;1.75;;;;;;;2.17;76.89;93634.25;4985386;28;20038;-77
2021/03/22 02:40:43;;;;;;;2.33;2.00;;;;;;;2.20;77.08;93639.75;4989334;28;20037;-77
2021/03/22 02:43:09;;;;;;;1.95;1.85;;;;;;;2.19;76.64;93633.06;4970765;28;20038;-79
2021/03/22 02:45:37;;;;;;;1.98;1.88;;;;;;;2.25;76.61;93636.56;4961682;28;20038;-78
2021/03/22 02:48:03;;;;;;;2.28;2.10;;;;;;;2.08;76.68;93633.72;4985042;28;20105;-79
2021/03/22 02:50:31;;;;;;;2.10;2.00;;;;;;;2.04;77.73;93630.00;4978456;28;20109;-79
2021/03/22 02:56:23;;;;;;;2.00;1.90;;;;;;;2.05;77.38;93609.28;5358150;23;20050;-78
2021/03/22 02:58:50;;;;;;;2.20;2.10;;;;;;;2.17;77.32;93594.00;4984276;28;20046;-78
2021/03/22 03:01:21;;;;;;;4.00;1.88;;;;;;;2.23;77.20;93606.00;4989810;28;20719;-76
2021/03/22 03:03:47;;;;;;;2.17;1.58;;;;;;;2.21;77.19;93610.53;4973962;28;20069;-76
2021/03/22 03:06:13;;;;;;;2.13;2.03;;;;;;;2.11;77.35;93597.41;4968662;28;20057;-78
2021/03/22 03:08:39;;;;;;;2.30;2.20;;;;;;;2.21;77.05;93609.75;4982798;28;20483;-78
2021/03/22 03:11:05;;;;;;;2.40;2.30;;;;;;;2.16;77.51;93612.97;4975743;28;20030;-78
2021/03/22 03:13:31;;;;;;;4.35;2.50;;;;;;;2.12;77.43;93606.69;4961489;28;20038;-78
2021/03/22 03:15:57;;;;;;;2.78;2.67;;;;;;;2.27;76.88;93596.88;4978263;28;20030;-80
2021/03/22 03:18:22;;;;;;;3.30;3.10;;;;;;;2.19;76.74;93592.03;4976460;28;20045;-80
2021/03/22 03:20:47;;;;;;;3.28;2.97;;;;;;;2.15;77.17;93590.88;4978539;28;20027;-80
2021/03/22 03:23:13;;;;;;;3.92;3.63;;;;;;;2.12;78.08;93596.44;4960090;28;20031;-80
2021/03/22 03:25:38;;;;;;;4.70;4.38;;;;;;;2.05;77.36;93595.69;4983819;28;20593;-80
2021/03/22 03:28:04;;;;;;;4.65;4.25;;;;;;;1.88;78.14;93600.53;5247881;23;20034;-80
2021/03/22 03:30:33;;;;;;;8.98;4.80;;;;;;;1.75;78.80;93596.28;5004940;28;20057;-80
2021/03/22 03:32:58;;;;;;;5.32;4.82;;;;;;;1.72;79.23;93596.69;5006372;28;20030;-80
2021/03/22 03:35:29;;;;;;;7.97;4.97;;;;;;;1.74;78.94;93597.28;4973485;28;20092;-80
2021/03/22 03:37:54;;;;;;;4.50;4.10;;;;;;;1.75;78.97;93588.59;4968368;28;20040;-80
2021/03/22 03:40:26;;;;;;;6.65;4.97;;;;;;;1.63;78.98;93592.81;5001797;28;20112;-80
2021/03/22 03:42:51;;;;;;;5.60;4.32;;;;;;;1.56;79.38;93597.19;4969919;28;20034;-80
2021/03/22 03:45:17;;;;;;;6.10;5.03;;;;;;;1.47;79.73;93599.22;4988211;28;20041;-79
2021/03/22 03:47:43;;;;;;;8.30;5.45;;;;;;;1.53;79.31;93601.94;4956178;28;20061;-80
2021/03/22 03:50:15;;;;;;;5.78;5.13;;;;;;;1.47;79.50;93596.66;4967805;28;20147;-78
2021/03/22 03:52:41;;;;;;;7.90;4.95;;;;;;;1.50;79.34;93585.22;4995654;28;20033;-78
2021/03/22 03:55:07;;;;;;;8.30;5.97;;;;;;;1.46;79.63;93586.59;4982057;28;20044;-78
2021/03/22 03:57:38;;;;;;;6.28;5.68;;;;;;;1.51;79.64;93584.22;4976442;28;20109;-79
2021/03/22 04:00:13;;;;;;;5.53;4.93;;;;;;;1.43;79.19;93574.22;5003829;28;20030;-80
2021/03/22 04:02:41;;;;;;;7.05;5.47;;;;;;;1.41;79.90;93576.19;5002600;28;20339;-79
2021/03/22 04:05:07;;;;;;;5.82;5.32;;;;;;;1.50;79.87;93577.53;5005555;28;20069;-81
2021/03/22 04:07:32;;;;;;;7.50;4.78;;;;;;;1.57;79.28;93582.59;4968893;28;20061;-79
2021/03/22 04:09:58;;;;;;;4.85;4.45;;;;;;;1.80;78.01;93570.03;4972363;28;20426;-80
2021/03/22 04:12:24;;;;;;;5.57;4.13;;;;;;;1.82;77.96;93580.09;5052971;23;20557;-77
2021/03/22 04:14:49;;;;;;;5.00;4.60;;;;;;;1.80;77.51;93572.63;4993595;28;20055;-80
2021/03/22 04:17:15;;;;;;;3.63;3.42;;;;;;;1.87;76.79;93564.88;4994445;28;20050;-80
2021/03/22 04:19:42;;;;;;;3.55;3.25;;;;;;;1.93;76.80;93576.84;4968258;28;20436;-80
2021/03/22 04:22:07;;;;;;;3.33;3.13;;;;;;;1.86;77.08;93583.81;4978424;28;20030;-79
2021/03/22 04:24:33;;;;;;;4.35;2.88;;;;;;;1.90;76.81;93572.13;4984548;28;20038;-80
2021/03/22 04:26:58;;;;;;;3.30;3.10;;;;;;;1.82;77.09;93574.97;4986633;28;20037;-80
2021/03/22 04:29:24;;;;;;;2.70;2.50;;;;;;;1.81;77.35;93558.81;4985710;28;20035;-80
2021/03/22 04:31:49;;;;;;;3.88;2.72;;;;;;;1.88;77.29;93563.88;4935359;28;20030;-79
2021/03/22 04:34:15;;;;;;;2.80;2.63;;;;;;;1.97;77.29;93552.38;4984263;28;20062;-81
2021/03/22 04:36:40;;;;;;;2.28;2.17;;;;;;;1.98;77.22;93562.41;4974829;28;20031;-81
2021/03/22 04:39:06;;;;;;;2.38;2.28;;;;;;;2.17;76.71;93565.81;4967524;28;20058;-80
2021/03/22 04:41:31;;;;;;;2.75;2.53;;;;;;;2.19;75.93;93556.13;4951017;28;20035;-81
2021/03/22 04:43:57;;;;;;;2.40;2.30;;;;;;;2.10;76.32;93575.31;5094129;23;20053;-78
2021/03/22 04:46:22;;;;;;;5.85;3.20;;;;;;;2.22;76.52;93571.09;5005383;28;20521;-81
2021/03/22 04:48:48;;;;;;;7.13;4.45;;;;;;;2.22;76.29;93571.09;4994892;28;20602;-81
2021/03/22 04:51:13;;;;;;;5.07;3.30;;;;;;;2.05;77.07;93570.81;4995643;28;20034;-81
2021/03/22 04:53:39;;;;;;;6.95;3.47;;;;;;;2.02;77.09;93575.59;4979213;28;20037;-78
2021/03/22 04:56:07;;;;;;;4.57;4.03;;;;;;;1.92;77.46;93567.56;4980782;28;20077;-79
2021/03/22 04:58:37;;;;;;;6.18;3.70;;;;;;;1.86;78.11;93571.78;4981924;28;20037;-80
2021/03/22 05:01:03;;;;;;;5.43;4.47;;;;;;;1.90;77.85;93564.44;4993478;28;20034;-79
2021/03/22 05:03:32;;;;;;;3.72;3.40;;;;;;;1.98;77.38;93579.56;4978954;28;20061;-80
2021/03/22 05:05:57;;;;;;;5.78;5.18;;;;;;;1.95;77.09;93580.78;5017118;28;20033;-79
2021/03/22 05:08:23;;;;;;;3.83;3.42;;;;;;;1.98;76.98;93579.56;4987000;28;20033;-79
2021/03/22 05:10:49;;;;;;;4.22;3.85;;;;;;;1.92;76.93;93576.06;5004867;28;20026;-79
2021/03/22 05:13:16;;;;;;;5.13;4.20;;;;;;;1.95;77.45;93577.41;5004560;23;20285;-79
2021/03/22 05:15:41;;;;;;;5.43;4.55;;;;;;;1.95;77.16;93585.91;5009629;28;20399;-79
2021/03/22 05:18:07;;;;;;;5.95;4.40;;;;;;;2.01;76.74;93589.41;4983851;28;20491;-78
2021/03/22 05:20:44;;;;;;;5.95;4.65;;;;;;;1.93;76.95;93593.00;5008368;28;20030;-79
2021/03/22 05:23:14;;;;;;;9.52;5.95;;;;;;;1.91;77.95;93595.00;4970205;28;20077;-79
2021/03/22 05:25:40;;;;;;;7.93;5.45;;;;;;;2.04;77.65;93599.25;4970708;28;20030;-78
2021/03/22 05:28:06;;;;;;;8.05;4.75;;;;;;;2.06;76.75;93592.13;4990704;28;20489;-78
2021/03/22 05:30:31;;;;;;;5.85;5.35;;;;;;;2.14;76.52;93609.81;4997802;22;20030;-78
2021/03/22 05:33:02;;;;;;;5.50;4.45;;;;;;;2.20;76.56;93593.59;5004681;28;20554;-79
2021/03/22 05:35:28;;;;;;;16.25;5.85;;;;;;;2.30;76.57;93588.78;4987055;28;20033;-79
2021/03/22 05:37:54;;;;;;;15.05;4.97;;;;;;;2.34;75.73;93592.47;4953905;28;20042;-79
2021/03/22 05:40:25;;;;;;;11.45;6.30;;;;;;;2.42;76.57;93597.34;4969530;28;20490;-79
2021/03/22 05:42:59;;;;;;;7.75;4.82;;;;;;;2.53;75.56;93597.66;4983083;28;20033;-79
2021/03/22 05:45:41;;;;;;;10.55;4.72;;;;;;;2.54;75.53;93599.22;4986623;28;20046;-78
2021/03/22 05:48:34;;;;;;;4.93;4.50;;;;;;;2.61;75.16;93610.22;4984652;28;20044;-79
2021/03/22 05:51:30;;;;;;;7.15;3.85;;;;;;;2.66;75.22;93610.34;4984420;28;20482;-78
2021/03/22 05:54:24;;;;;;;10.25;5.40;;;;;;;2.61;75.77;93599.94;5001679;28;20057;-79
2021/03/22 05:57:18;;;;;;;6.82;5.43;;;;;;;2.80;75.37;93611.78;4985128;28;20065;-78
2021/03/22 06:00:08;;;;;;;4.50;4.03;;;;;;;3.01;74.13;93616.50;4997236;28;20148;-78
2021/03/22 06:02:40;;;;;;;11.73;5.28;;;;;;;3.22;72.94;93617.84;4985131;28;20451;-79
2021/03/22 06:05:35;;;;;;;10.20;6.85;;;;;;;3.42;72.00;93622.75;4971662;28;20493;-79
2021/03/22 06:08:15;;;;;;;9.27;5.43;;;;;;;3.57;71.97;93623.13;5018327;28;20050;-79
2021/03/22 06:10:43;;;;;;;6.43;4.07;;;;;;;3.54;71.67;93621.00;4989603;28;20060;-79
2021/03/22 06:13:09;;;;;;;5.45;4.95;;;;;;;3.49;71.12;93613.16;4974669;28;20130;-83
2021/03/22 06:15:43;;;;;;;7.65;4.95;;;;;;;3.61;71.65;93611.44;4965642;28;20030;-81
2021/03/22 06:18:11;;;;;;;10.27;7.00;;;;;;;3.52;71.49;93612.72;4970933;28;20122;-80
2021/03/22 06:20:38;;;;;;;9.45;6.10;;;;;;;3.61;71.34;93616.59;4985437;28;20557;-81
2021/03/22 06:23:17;;;;;;;9.00;6.00;;;;;;;3.72;70.36;93616.81;5001949;28;20030;-81
2021/03/22 06:25:42;;;;;;;9.10;7.00;;;;;;;3.80;70.57;93609.59;4957716;28;20088;-81
2021/03/22 06:28:14;;;;;;;12.68;8.02;;;;;;;3.81;70.76;93616.31;4986395;28;20031;-81
2021/03/22 06:31:00;;;;;;;12.00;8.23;;;;;;;3.72;70.73;93621.97;4985164;28;20022;-80
2021/03/22 06:33:29;;;;;;;15.73;8.93;;;;;;;3.45;71.43;93632.59;4983937;28;20038;-80
2021/03/22 06:35:55;;;;;;;13.60;10.45;;;;;;;3.07;72.76;93625.13;5001732;28;20038;-80
2021/03/22 06:38:21;;;;;;;13.00;9.43;;;;;;;2.72;72.02;93630.03;4977039;28;20561;-78
2021/03/22 06:40:46;;;;;;;9.27;7.20;;;;;;;2.31;73.86;93628.81;5000591;28;20037;-80
2021/03/22 06:43:17;;;;;;;12.23;9.85;;;;;;;1.68;76.79;93626.28;4982883;28;20023;-79
2021/03/22 06:45:44;;;;;;;9.93;8.07;;;;;;;1.80;77.63;93629.78;5003757;28;20026;-77
2021/03/22 06:48:17;;;;;;;11.45;8.93;;;;;;;1.36;78.33;93627.25;4985391;28;20030;-65
2021/03/22 06:50:43;;;;;;;10.18;7.75;;;;;;;1.67;77.80;93629.84;5000690;28;20033;-66
2021/03/22 06:53:09;;;;;;;12.13;8.07;;;;;;;1.77;77.57;93630.16;5002280;28;20038;-78
2021/03/22 06:55:37;;;;;;;12.93;8.90;;;;;;;1.53;78.21;93630.91;4981347;28;20041;-82
2021/03/22 06:58:02;;;;;;;12.30;8.45;;;;;;;1.50;78.27;93626.19;4990414;28;20063;-82
2021/03/22 07:00:35;;;;;;;13.20;7.63;;;;;;;1.40;79.60;93629.19;5002504;28;20046;-78
2021/03/22 07:03:06;;;;;;;10.60;8.23;;;;;;;1.47;79.52;93618.94;5015692;28;20097;-80
2021/03/22 07:05:36;;;;;;;11.98;8.30;;;;;;;1.39;79.71;93626.84;4997215;28;20418;-80
2021/03/22 07:08:06;;;;;;;11.52;7.93;;;;;;;1.67;77.89;93634.97;4996132;28;20022;-80
2021/03/22 07:10:43;;;;;;;8.25;6.93;;;;;;;1.68;77.67;93636.53;4978214;28;20023;-82
2021/03/22 07:13:20;;;;;;;10.70;7.30;;;;;;;1.51;78.82;93635.47;4990718;28;20042;-84
2021/03/22 07:15:46;;;;;;;9.52;7.22;;;;;;;1.64;78.27;93625.16;4991838;28;20053;-82
2021/03/22 07:18:26;;;;;;;10.30;7.65;;;;;;;1.93;77.80;93623.75;4995703;28;20434;-85
2021/03/22 07:20:57;;;;;;;10.05;7.85;;;;;;;2.10;76.59;93621.47;5020968;28;20072;-82
2021/03/22 07:23:22;;;;;;;15.75;7.95;;;;;;;2.35;76.74;93621.47;5020934;28;20072;-80
2021/03/22 07:26:01;;;;;;;15.18;8.93;;;;;;;2.36;75.44;93621.28;5019593;28;20027;-83
2021/03/22 07:29:01;;;;;;;12.38;9.63;;;;;;;2.44;75.53;93622.81;5013247;28;20065;-83
2021/03/22 07:32:01;;;;;;;13.40;9.63;;;;;;;2.18;75.40;93644.31;5022722;28;20102;-81
2021/03/22 07:34:42;;;;;;;8.95;8.07;;;;;;;1.93;76.73;93646.03;4937922;28;20054;-81
2021/03/22 07:37:50;;;;;;;9.15;7.95;;;;;;;2.20;76.23;93656.91;5012896;28;20030;-80
2021/03/22 07:40:41;;;;;;;8.60;6.05;;;;;;;1.88;75.89;93661.28;4999195;28;20034;-81
2021/03/22 07:43:30;;;;;;;6.53;4.80;;;;;;;1.67;76.82;93665.72;5019484;28;20038;-83
2021/03/22 07:46:04;;;;;;;7.35;5.90;;;;;;;1.59;77.58;93668.50;5007982;28;20041;-80
2021/03/22 07:49:10;;;;;;;7.82;6.45;;;;;;;1.54;78.22;93676.03;4978212;28;20130;-82
2021/03/22 07:51:56;;;;;;;13.90;6.47;;;;;;;1.69;78.12;93676.56;5007177;28;20046;-79
2021/03/22 07:54:43;;;;;;;6.88;5.38;;;;;;;1.68;77.56;93669.84;4983441;28;20038;-79
2021/03/22 07:57:41;;;;;;;12.43;7.38;;;;;;;1.47;77.25;93672.72;4998347;28;20041;-82
2021/03/22 08:00:29;;;;;;;10.18;7.22;;;;;;;1.57;77.37;93665.38;4992174;28;20050;-80
2021/03/22 08:03:08;;;;;;;8.65;7.32;;;;;;;1.89;77.78;93667.97;4999904;28;20058;-82
2021/03/22 08:05:43;;;;;;;13.27;7.90;;;;;;;2.19;75.85;93663.81;4995037;28;20033;-80
2021/03/22 08:08:31;;;;;;;7.70;5.85;;;;;;;2.42;74.31;93656.34;4985771;28;20088;-83
2021/03/22 08:11:25;;;;;;;6.63;5.53;;;;;;;2.07;74.20;93660.34;4995984;28;20049;-82
2021/03/22 08:14:00;;;;;;;12.02;6.15;;;;;;;2.02;74.75;93657.63;5001894;28;20052;-81
2021/03/22 08:16:45;;;;;;;6.45;5.82;;;;;;;2.20;75.23;93655.13;4990698;28;20026;-80
2021/03/22 08:19:19;;;;;;;13.80;7.05;;;;;;;2.30;74.40;93655.47;4974809;28;20105;-81
2021/03/22 08:21:46;;;;;;;11.18;7.47;;;;;;;2.27;75.71;93655.06;4987869;28;20050;-80
2021/03/22 08:24:17;;;;;;;16.58;8.63;;;;;;;2.46;74.63;93650.81;4987837;28;20413;-78
2021/03/22 08:26:48;;;;;;;13.35;8.30;;;;;;;2.58;73.60;93654.25;5001192;28;20049;-79
2021/03/22 08:29:27;;;;;;;15.68;8.65;;;;;;;2.59;74.25;93648.09;4984130;28;20042;-79
2021/03/22 08:32:29;;;;;;;13.57;7.95;;;;;;;2.74;72.50;93640.88;4969757;28;20037;-82
2021/03/22 08:35:25;;;;;;;11.05;7.13;;;;;;;2.69;73.71;93640.72;4987220;28;20038;-81
2021/03/22 08:38:02;;;;;;;9.00;7.20;;;;;;;3.06;71.51;93648.44;4991201;28;20042;-81
2021/03/22 08:40:53;;;;;;;12.13;6.13;;;;;;;3.33;71.82;93654.88;4977734;28;20065;-82
2021/03/22 08:43:23;;;;;;;10.38;6.38;;;;;;;3.40;70.16;93653.00;5000080;28;20062;-81
2021/03/22 08:46:03;;;;;;;9.30;5.05;;;;;;;3.54;69.78;93651.84;4984982;28;20044;-79
2021/03/22 08:48:28;;;;;;;5.68;4.38;;;;;;;3.81;70.15;93636.88;5007649;28;20073;-80
2021/03/22 08:50:55;;;;;;;3.50;3.20;;;;;;;4.09;66.14;93644.00;5000239;28;20057;-81
2021/03/22 08:53:23;;;;;;;6.05;3.50;;;;;;;4.15;65.52;93648.25;4981860;28;20538;-77
2021/03/22 08:55:51;;;;;;;7.72;4.18;;;;;;;3.46;69.23;93651.38;5007441;28;20049;-80
2021/03/22 08:58:29;;;;;;;4.43;4.07;;;;;;;3.43;67.76;93651.81;4981294;28;20141;-78
2021/03/22 09:01:09;;;;;;;6.60;4.55;;;;;;;3.54;70.20;93649.28;5007245;28;20034;-83
2021/03/22 09:03:41;;;;;;;7.25;5.05;;;;;;;3.90;67.98;93645.88;4995967;28;20491;-81
2021/03/22 09:06:24;;;;;;;7.63;5.13;;;;;;;4.25;66.67;93640.03;4978919;28;20104;-78
2021/03/22 09:08:50;;;;;;;6.95;5.28;;;;;;;4.50;65.94;93643.16;4980792;28;20050;-81
2021/03/22 09:11:27;;;;;;;11.18;5.60;;;;;;;4.48;65.23;93641.84;5004844;28;20026;-84
2021/03/22 09:14:06;;;;;;;7.35;6.35;;;;;;;4.49;64.67;93638.25;5007161;28;20026;-81
2021/03/22 09:16:38;;;;;;;7.97;5.75;;;;;;;4.64;64.92;93633.44;5002807;28;20014;-80
2021/03/22 09:19:13;;;;;;;8.20;5.95;;;;;;;4.69;64.65;93643.84;5011749;28;20034;-81
2021/03/22 09:21:54;;;;;;;9.38;6.38;;;;;;;4.92;64.65;93650.03;5002735;28;20034;-81
2021/03/22 09:24:42;;;;;;;9.35;6.43;;;;;;;5.05;64.04;93647.22;4999998;28;20054;-81
2021/03/22 09:27:14;;;;;;;7.68;5.93;;;;;;;5.13;62.81;93644.28;5001596;28;20053;-83
2021/03/22 09:29:51;;;;;;;9.90;6.53;;;;;;;5.24;62.69;93655.59;4990702;28;20056;-83
2021/03/22 09:32:29;;;;;;;10.75;6.97;;;;;;;5.12;62.40;93642.72;4993236;28;20125;-83
2021/03/22 09:35:27;;;;;;;7.90;6.13;;;;;;;4.94;61.79;93641.06;4995614;28;20038;-80
2021/03/22 09:38:03;;;;;;;7.07;6.30;;;;;;;5.01;62.55;93640.91;4992221;28;20564;-81
2021/03/22 09:40:29;;;;;;;17.83;8.55;;;;;;;5.01;62.30;93651.22;4972198;28;20042;-81
2021/03/22 09:43:10;;;;;;;9.50;7.38;;;;;;;5.07;63.20;93642.63;4998362;28;20057;-84
2021/03/22 09:45:51;;;;;;;7.22;5.78;;;;;;;5.14;62.20;93635.53;5016324;28;20117;-84
2021/03/22 09:48:16;;;;;;;12.75;6.30;;;;;;;5.48;62.30;93633.88;5012661;28;20042;-80
2021/03/22 09:50:43;;;;;;;9.68;5.57;;;;;;;5.80;60.86;93630.88;5000937;28;20069;-81
2021/03/22 09:53:14;;;;;;;5.50;4.82;;;;;;;6.19;58.22;93626.69;4990758;28;20422;-82
2021/03/22 09:55:48;;;;;;;6.03;4.97;;;;;;;6.20;58.31;93617.91;4985391;28;20051;-81
2021/03/22 09:58:33;;;;;;;5.25;4.68;;;;;;;6.32;56.99;93626.34;4985658;28;20030;-78
2021/03/22 10:01:07;;;;;;;8.32;6.03;;;;;;;6.65;59.23;93619.63;4983502;28;21045;-83
2021/03/22 10:03:35;;;;;;;9.13;6.57;;;;;;;7.25;58.38;93618.88;4977392;28;20041;-81
2021/03/22 10:06:04;;;;;;;7.55;6.28;;;;;;;7.78;56.39;93613.00;4986801;28;20133;-83
2021/03/22 10:08:36;;;;;;;12.48;8.30;;;;;;;8.23;55.14;93623.03;4985237;28;20053;-83
2021/03/22 10:11:21;;;;;;;;;;;;;;;8.50;50.96;93614.47;4987091;28;20618;-83
2021/03/22 10:13:47;;;;;;;5.82;4.20;;;;;;;8.68;50.32;93611.50;4993548;28;19946;-82
2021/03/22 10:16:24;;;;;;;5.20;3.90;;;;;;;8.86;50.42;93616.28;4994676;28;20042;-82
2021/03/22 10:18:53;;;;;;;5.70;4.28;;;;;;;8.97;50.33;93617.91;4969107;28;20026;-82
2021/03/22 10:21:29;;;;;;;4.35;3.70;;;;;;;8.95;47.34;93617.38;4992133;28;20053;-82
2021/03/22 10:23:59;;;;;;;6.32;4.10;;;;;;;8.61;48.29;93621.28;4979114;28;20031;-82
2021/03/22 10:26:40;;;;;;;5.00;3.92;;;;;;;8.59;48.93;93623.34;4985492;28;20473;-84
2021/03/22 10:29:28;;;;;;;11.07;6.18;;;;;;;8.57;49.53;93622.81;4970080;28;20069;-83
2021/03/22 10:32:08;;;;;;;10.57;6.70;;;;;;;8.69;50.18;93626.00;4953108;28;20554;-83
2021/03/22 10:34:49;;;;;;;8.52;5.28;;;;;;;8.63;49.63;93627.03;5002717;28;20068;-84
2021/03/22 10:37:21;;;;;;;8.90;5.10;;;;;;;8.68;49.33;93632.22;5003795;28;20117;-83
2021/03/22 10:39:50;;;;;;;8.65;5.63;;;;;;;8.51;47.37;93632.38;5006021;28;20026;-81
2021/03/22 10:42:32;;;;;;;11.40;6.25;;;;;;;8.21;50.42;93632.84;4993847;28;20043;-81
2021/03/22 10:44:58;;;;;;;;;;;;;;;8.22;49.45;93628.47;4989893;28;20030;-81
2021/03/22 10:47:28;;;;;;;8.18;5.55;;;;;;;7.64;50.06;93635.09;4995410;28;19968;-82
2021/03/22 10:49:53;;;;;;;2.60;2.40;;;;;;;6.68;49.91;93632.09;5240586;23;20046;-83
2021/03/22 10:52:30;;;;;;;4.15;3.75;;;;;;;6.63;52.85;93633.56;4982197;28;20034;-84
2021/03/22 10:54:56;;;;;;;2.95;2.75;;;;;;;6.86;51.27;93626.66;4967913;28;20053;-83
2021/03/22 10:57:37;;;;;;;3.30;3.00;;;;;;;6.93;52.29;93635.00;4965268;28;20034;-82
2021/03/22 11:00:39;;;;;;;5.47;2.97;;;;;;;6.90;49.67;93633.69;4977433;28;20513;-81
2021/03/22 11:03:06;;;;;;;2.72;2.53;;;;;;;6.24;51.19;93635.28;4991416;28;20047;-80
2021/03/22 11:05:39;;;;;;;7.68;2.88;;;;;;;5.92;52.37;93640.16;4962152;28;20030;-80
2021/03/22 11:08:07;;;;;;;3.38;2.53;;;;;;;6.00;52.31;93628.66;4975887;28;20508;-80
2021/03/22 11:10:33;;;;;;;7.07;3.35;;;;;;;5.89;53.68;93638.00;4950939;28;20031;-81
2021/03/22 11:12:58;;;;;;;10.50;2.80;;;;;;;5.95;53.32;93636.31;4978188;28;20043;-80
2021/03/22 11:15:35;;;;;;;4.60;3.75;;;;;;;6.12;53.29;93637.13;4970986;28;20050;-83
2021/03/22 11:18:02;;;;;;;7.18;3.70;;;;;;;6.35;52.84;93636.25;4980299;28;20536;-80
2021/03/22 11:20:30;;;;;;;2.92;2.45;;;;;;;6.31;51.16;93633.31;4968474;28;20189;-80
2021/03/22 11:23:18;;;;;;;3.65;3.08;;;;;;;5.99;53.30;93633.03;4952672;28;20042;-81
2021/03/22 11:25:44;;;;;;;5.90;4.15;;;;;;;6.14;53.91;93631.75;4952840;28;20041;-81
2021/03/22 11:28:12;;;;;;;4.82;3.58;;;;;;;6.19;53.48;93635.22;4949949;28;20034;-80
2021/03/22 11:30:49;;;;;;;2.75;2.53;;;;;;;6.28;51.74;93630.44;4985985;28;20034;-80
2021/03/22 11:33:29;;;;;;;2.95;2.70;;;;;;;5.92;52.92;93632.41;4994352;28;20097;-80
2021/03/22 11:36:23;;;;;;;3.45;3.15;;;;;;;5.57;55.33;93642.06;5033300;23;20038;-81
2021/03/22 11:38:49;;;;;;;4.85;4.00;;;;;;;5.55;55.31;93636.34;4981948;28;20416;-84
2021/03/22 11:41:33;;;;;;;5.47;3.00;;;;;;;5.45;56.18;93641.31;4970017;28;20510;-82
2021/03/22 11:44:04;;;;;;;3.50;2.97;;;;;;;5.24;55.80;93643.47;4984452;28;20109;-83
2021/03/22 11:46:30;;;;;;;4.60;3.67;;;;;;;5.23;56.58;93641.91;4987959;28;21006;-81
2021/03/22 11:48:56;;;;;;;4.95;3.78;;;;;;;5.27;57.27;93642.25;4961088;28;20034;-81
2021/03/22 11:51:24;;;;;;;8.23;4.45;;;;;;;5.39;57.46;93637.84;4970898;28;20046;-82
2021/03/22 11:53:56;;;;;;;6.32;4.55;;;;;;;5.73;56.60;93649.06;4985632;28;20046;-81
2021/03/22 11:56:24;;;;;;;6.47;4.57;;;;;;;5.82;55.94;93642.50;4986724;28;20061;-81
2021/03/22 11:58:50;;;;;;;7.90;4.90;;;;;;;5.86;54.98;93642.84;4970330;28;20302;-84
2021/03/22 12:01:28;;;;;;;6.30;5.10;;;;;;;5.91;56.50;93650.72;4968021;28;20126;-83
2021/03/22 12:04:02;;;;;;;7.53;5.25;;;;;;;5.91;56.82;93651.50;4988442;28;20061;-85
2021/03/22 12:06:28;;;;;;;11.38;5.35;;;;;;;5.96;55.98;93650.78;4987843;28;20045;-83
2021/03/22 12:08:53;;;;;;;6.25;4.97;;;;;;;5.94;61.55;93652.81;5553967;23;20530;-80
2021/03/22 12:11:27;;;;;;;10.73;6.53;;;;;;;6.02;59.61;93657.63;4977124;28;20097;-83
2021/03/22 12:13:54;;;;;;;8.80;5.88;;;;;;;6.21;56.94;93660.78;4952190;28;20077;-85
2021/03/22 12:16:22;;;;;;;7.97;5.45;;;;;;;6.15;58.52;93662.47;4945828;28;20034;-84
2021/03/22 12:18:48;;;;;;;6.15;5.43;;;;;;;5.99;60.08;93669.16;4961034;28;20106;-80